Davisport, Kentucky
Current Conditions -  °F | °C
As of 1:55 AM on Friday 28 Nov 2014 (Local Time) from KSJS Reporting Station
Light Snow Light Snow  
Wind Chill: 29°   Ceiling: 2600
Heat Index: 29°   Visibility: 5mi
Dew Point: 27°   Wind: 0mph
Humidity: 90%   Direction: NA
Pressure: 30.35"   Gusts: NA
Location:  37.8776°N, 82.5976°W
Report Text: KSJS 280655Z AUTO 00000KT 5SM -SN SCT013 BKN026 OVC047 M01/M03 A3035 RMK AO2 T10151030
Loading
Personal Weather Stations






























Interactive Weather Map New forecast layout! Learn more

10-Day Weather Forecast

Advertisements
Track Severe Weather on mobile